Time;durP1;ratioP1;P1;durP2;ratioP2;P2;SDS_P1;SDS_P2;PMS_P1;PMS_P2;Temp;Humidity;BMP_temperature;BMP_pressure;BME280_temperature;BME280_humidity;BME280_pressure;Samples;Min_cycle;Max_cycle;Signal;HPM_P1;HPM_P2
2021/07/13 00:00:20;;;;;;;7.22;3.47;;;;;;;19.70;71.28;95445.66;5011077;28;20042;-74
2021/07/13 00:02:47;;;;;;;8.25;3.80;;;;;;;19.70;71.47;95440.13;5011581;28;20096;-74
2021/07/13 00:05:15;;;;;;;5.93;3.53;;;;;;;19.67;71.65;95432.63;5010811;28;20050;-74
2021/07/13 00:07:43;;;;;;;5.88;2.97;;;;;;;19.66;71.48;95428.31;5009635;28;20045;-74
2021/07/13 00:10:11;;;;;;;6.53;3.88;;;;;;;19.63;71.54;95427.16;5010803;28;20061;-73
2021/07/13 00:12:38;;;;;;;8.30;3.72;;;;;;;19.60;71.66;95430.69;5011352;28;20053;-74
2021/07/13 00:15:08;;;;;;;8.48;3.90;;;;;;;19.58;71.88;95430.28;5010772;28;20042;-73
2021/07/13 00:17:35;;;;;;;10.82;4.50;;;;;;;19.54;71.72;95426.75;5011449;28;20057;-74
2021/07/13 00:20:01;;;;;;;5.65;3.53;;;;;;;19.53;71.66;95425.16;5011220;28;20065;-74
2021/07/13 00:22:28;;;;;;;5.15;3.35;;;;;;;19.54;71.52;95422.00;5010916;28;20053;-74
2021/07/13 00:24:54;;;;;;;5.70;3.60;;;;;;;19.54;71.93;95422.00;5011356;28;20046;-74
2021/07/13 00:27:20;;;;;;;5.47;3.40;;;;;;;19.55;72.13;95420.03;5010874;28;20057;-73
2021/07/13 00:29:47;;;;;;;6.03;3.40;;;;;;;19.54;72.23;95418.44;5011327;28;20046;-74
2021/07/13 00:32:15;;;;;;;6.32;3.65;;;;;;;19.52;71.87;95418.03;5010909;28;20046;-75
2021/07/13 00:34:41;;;;;;;5.90;3.47;;;;;;;19.50;71.57;95415.69;5011142;28;20440;-74
2021/07/13 00:37:08;;;;;;;5.63;3.53;;;;;;;19.52;71.29;95418.84;5010421;28;20046;-73
2021/07/13 00:39:34;;;;;;;7.40;3.60;;;;;;;19.49;71.11;95416.88;5010932;28;20492;-74
2021/07/13 00:42:01;;;;;;;7.97;3.80;;;;;;;19.44;71.64;95411.75;5011197;28;20057;-74
2021/07/13 00:44:27;;;;;;;5.78;3.55;;;;;;;19.42;71.77;95400.34;5010908;28;20500;-74
2021/07/13 00:46:54;;;;;;;6.18;3.30;;;;;;;19.39;71.81;95387.31;5011043;28;20049;-74
2021/07/13 00:49:22;;;;;;;6.97;3.58;;;;;;;19.34;72.31;95379.44;5013371;28;20382;-74
2021/07/13 00:51:49;;;;;;;5.47;3.67;;;;;;;19.29;72.29;95372.34;5014858;28;20049;-74
2021/07/13 00:54:15;;;;;;;8.95;4.00;;;;;;;19.28;72.67;95389.34;5014322;28;20045;-74
2021/07/13 00:56:44;;;;;;;6.45;3.85;;;;;;;19.25;73.15;95388.13;5014843;28;20470;-74
2021/07/13 00:59:11;;;;;;;7.80;3.80;;;;;;;19.26;73.27;95380.63;5014291;28;20532;-73
2021/07/13 01:01:37;;;;;;;6.68;3.58;;;;;;;19.25;73.38;95381.84;5014662;28;20053;-74
2021/07/13 01:04:06;;;;;;;5.65;3.60;;;;;;;19.25;73.58;95370.78;5013992;28;20050;-73
2021/07/13 01:06:44;;;;;;;8.82;3.53;;;;;;;19.25;73.25;95368.03;5014043;28;20046;-74
2021/07/13 01:09:14;;;;;;;5.60;3.70;;;;;;;19.24;73.83;95363.69;5013875;28;20057;-73
2021/07/13 01:11:47;;;;;;;5.53;3.70;;;;;;;19.23;73.71;95359.38;5014415;28;20074;-73
2021/07/13 01:14:26;;;;;;;10.45;4.15;;;;;;;19.22;73.78;95360.56;5014159;28;20137;-72
2021/07/13 01:16:57;;;;;;;5.40;3.75;;;;;;;19.23;73.89;95359.38;4995005;28;20454;-74
2021/07/13 01:19:42;;;;;;;6.85;3.85;;;;;;;19.25;74.13;95359.75;4994167;28;20050;-74
2021/07/13 01:22:14;;;;;;;6.15;3.70;;;;;;;19.28;72.70;95353.44;4994367;28;20050;-72
2021/07/13 01:25:04;;;;;;;5.13;3.33;;;;;;;19.32;72.76;95356.22;4995118;28;20049;-73
2021/07/13 01:27:45;;;;;;;6.15;3.65;;;;;;;19.30;73.19;95351.06;4994368;28;20046;-73
2021/07/13 01:30:17;;;;;;;5.70;3.53;;;;;;;19.28;73.00;95358.97;4994287;28;20046;-72
2021/07/13 01:32:46;;;;;;;6.60;3.60;;;;;;;19.20;73.17;95351.88;4994630;28;20493;-73
2021/07/13 01:35:19;;;;;;;6.32;3.80;;;;;;;19.15;73.06;95344.00;4993840;28;20050;-73
2021/07/13 01:37:49;;;;;;;4.57;3.10;;;;;;;19.17;73.33;95347.16;5012280;28;20086;-75
2021/07/13 01:40:16;;;;;;;4.78;3.40;;;;;;;19.21;74.13;95353.44;5013729;28;20046;-73
2021/07/13 01:42:43;;;;;;;5.63;3.50;;;;;;;19.24;73.21;95349.91;5013994;28;20107;-74
2021/07/13 01:45:12;;;;;;;6.18;3.75;;;;;;;19.28;72.53;95361.72;5013635;28;20054;-72
2021/07/13 01:47:41;;;;;;;7.78;3.15;;;;;;;19.28;72.33;95353.44;5013765;28;20050;-73
2021/07/13 01:50:11;;;;;;;6.05;3.25;;;;;;;19.28;72.73;95345.16;5013613;28;20042;-74
2021/07/13 01:52:39;;;;;;;5.72;3.10;;;;;;;19.30;73.32;95348.31;5013731;28;20073;-74
2021/07/13 01:55:07;;;;;;;5.93;3.55;;;;;;;19.32;73.06;95347.94;5013431;28;20072;-72
2021/07/13 01:57:34;;;;;;;7.03;3.70;;;;;;;19.28;73.47;95336.88;5013637;28;20084;-74
2021/07/13 02:00:06;;;;;;;6.85;2.92;;;;;;;19.30;73.70;95340.81;5012780;28;20057;-73
2021/07/13 02:02:33;;;;;;;7.35;3.85;;;;;;;19.36;73.19;95345.91;5013502;28;20045;-73
2021/07/13 02:05:05;;;;;;;6.80;3.40;;;;;;;19.33;73.34;95347.53;5013509;28;20053;-73
2021/07/13 02:07:35;;;;;;;4.28;3.22;;;;;;;19.28;73.66;95336.88;5012927;28;20508;-74
2021/07/13 02:10:02;;;;;;;5.32;3.20;;;;;;;19.21;73.93;95337.69;5013264;28;20442;-73
2021/07/13 02:12:28;;;;;;;6.55;3.80;;;;;;;19.19;74.19;95334.53;5013366;28;20394;-73
2021/07/13 02:14:55;;;;;;;9.02;3.78;;;;;;;19.17;74.52;95325.09;5013467;28;20049;-74
2021/07/13 02:17:25;;;;;;;5.40;3.67;;;;;;;19.18;75.05;95321.94;5012804;28;20053;-73
2021/07/13 02:19:51;;;;;;;6.85;3.50;;;;;;;19.19;74.45;95329.00;5013431;28;20046;-73
2021/07/13 02:22:19;;;;;;;13.73;4.30;;;;;;;19.15;74.26;95332.97;5012692;28;20058;-72
2021/07/13 02:24:46;;;;;;;7.32;3.70;;;;;;;19.11;75.52;95340.50;5013464;28;20046;-73
2021/07/13 02:27:16;;;;;;;6.55;4.38;;;;;;;19.03;75.62;95337.72;5012591;28;20050;-73
2021/07/13 02:29:47;;;;;;;6.85;4.47;;;;;;;18.99;75.50;95331.41;5013116;28;20125;-73
2021/07/13 02:32:20;;;;;;;6.90;4.15;;;;;;;18.98;75.84;95343.66;5012595;28;20053;-72
2021/07/13 02:34:50;;;;;;;9.03;5.03;;;;;;;19.02;75.45;95338.91;5013337;28;20394;-73
2021/07/13 02:37:18;;;;;;;9.50;5.05;;;;;;;19.00;75.45;95349.56;5012078;28;20277;-73
2021/07/13 02:39:46;;;;;;;8.60;4.97;;;;;;;18.95;75.78;95347.22;5012605;28;20049;-73
2021/07/13 02:42:14;;;;;;;8.10;5.07;;;;;;;18.89;75.86;95351.53;5012456;28;20046;-72
2021/07/13 02:44:41;;;;;;;10.05;5.40;;;;;;;18.80;76.02;95334.63;5013054;28;20053;-74
2021/07/13 02:47:10;;;;;;;10.27;5.25;;;;;;;18.80;76.24;95331.09;5012514;28;20049;-72
2021/07/13 02:49:44;;;;;;;6.18;5.00;;;;;;;18.88;76.12;95341.69;5012823;28;20408;-73
2021/07/13 02:52:12;;;;;;;7.00;4.97;;;;;;;18.83;76.47;95336.56;5012213;28;20100;-73
2021/07/13 02:54:40;;;;;;;8.00;4.95;;;;;;;18.82;76.85;95321.22;5012730;28;20053;-75
2021/07/13 02:57:09;;;;;;;8.20;5.35;;;;;;;18.81;76.82;95319.66;5012117;28;20053;-72
2021/07/13 02:59:37;;;;;;;8.45;4.82;;;;;;;18.83;76.65;95322.78;5012614;28;20038;-75
2021/07/13 03:02:04;;;;;;;10.93;5.45;;;;;;;18.83;76.70;95322.78;5012125;28;20049;-73
2021/07/13 03:04:31;;;;;;;9.45;4.85;;;;;;;18.80;76.76;95318.06;5012420;28;20045;-74
2021/07/13 03:06:59;;;;;;;6.97;5.07;;;;;;;18.83;76.61;95317.28;5012071;28;20057;-74
2021/07/13 03:09:26;;;;;;;8.07;5.10;;;;;;;18.87;76.77;95318.06;5011992;28;20065;-74
2021/07/13 03:11:52;;;;;;;8.52;4.90;;;;;;;18.88;76.80;95319.63;5012136;28;20050;-74
2021/07/13 03:14:22;;;;;;;8.05;4.70;;;;;;;18.87;76.90;95318.06;5011816;28;20056;-74
2021/07/13 03:16:50;;;;;;;12.10;5.20;;;;;;;18.90;77.05;95317.28;5012276;28;20038;-75
2021/07/13 03:19:17;;;;;;;7.95;5.00;;;;;;;18.88;76.90;95319.63;5011766;28;20092;-75
2021/07/13 03:21:50;;;;;;;7.40;4.70;;;;;;;18.83;77.22;95322.78;5012299;28;20061;-74
2021/07/13 03:24:17;;;;;;;;;;;;;;;18.78;77.45;95317.66;5012290;28;20048;-73
2021/07/13 03:26:46;;;;;;;9.65;5.32;;;;;;;18.76;77.84;95317.28;5012193;28;19928;-74
2021/07/13 03:29:14;;;;;;;9.07;4.47;;;;;;;18.76;77.60;95322.81;5011460;28;20046;-74
2021/07/13 03:31:44;;;;;;;9.77;5.05;;;;;;;18.70;77.88;95327.16;5012088;28;20042;-75
2021/07/13 03:34:11;;;;;;;8.98;5.38;;;;;;;18.67;78.30;95322.38;5011578;28;20046;-74
2021/07/13 03:36:38;;;;;;;8.20;4.88;;;;;;;18.67;78.52;95316.88;5011597;28;20054;-74
2021/07/13 03:39:06;;;;;;;7.53;4.50;;;;;;;18.72;78.27;95322.00;5011278;28;20054;-74
2021/07/13 03:41:33;;;;;;;9.55;5.13;;;;;;;18.71;78.55;95329.50;5011720;28;20512;-74
2021/07/13 03:44:02;;;;;;;10.02;5.15;;;;;;;18.70;78.69;95324.38;5011932;28;20050;-74
2021/07/13 03:46:29;;;;;;;7.68;4.90;;;;;;;18.73;78.29;95323.59;5011441;28;20042;-75
2021/07/13 03:48:57;;;;;;;6.82;5.35;;;;;;;18.72;78.36;95320.03;5011622;28;20046;-74
2021/07/13 03:51:36;;;;;;;8.48;5.20;;;;;;;18.73;78.79;95318.06;5011305;28;20053;-74
2021/07/13 03:54:04;;;;;;;8.10;5.32;;;;;;;18.75;78.67;95316.50;5011347;28;20045;-73
2021/07/13 03:56:31;;;;;;;6.75;5.15;;;;;;;18.78;78.77;95314.91;5011778;28;20046;-74
2021/07/13 03:58:58;;;;;;;6.13;4.53;;;;;;;18.82;78.06;95323.19;5011624;28;20054;-74
2021/07/13 04:01:24;;;;;;;7.40;5.00;;;;;;;18.83;77.94;95317.28;5011207;28;20046;-75
2021/07/13 04:03:51;;;;;;;8.43;4.72;;;;;;;18.81;78.25;95319.66;5011425;28;20057;-77
2021/07/13 04:06:19;;;;;;;6.43;5.03;;;;;;;18.84;78.11;95324.34;5010867;28;20042;-74
2021/07/13 04:08:45;;;;;;;5.95;4.25;;;;;;;18.81;78.10;95319.66;5011484;28;20050;-74
2021/07/13 04:11:11;;;;;;;6.82;4.60;;;;;;;18.80;78.31;95312.56;5010935;28;20053;-75
2021/07/13 04:13:38;;;;;;;6.10;4.05;;;;;;;18.81;77.89;95314.13;5011203;28;20046;-74
2021/07/13 04:16:05;;;;;;;5.65;3.60;;;;;;;18.79;78.18;95310.97;5010970;28;20057;-74
2021/07/13 04:18:31;;;;;;;6.13;4.05;;;;;;;18.82;78.36;95321.22;5011440;28;20057;-75
2021/07/13 04:20:58;;;;;;;5.63;3.97;;;;;;;18.85;77.85;95314.91;5011636;28;20073;-75
2021/07/13 04:23:26;;;;;;;8.82;4.50;;;;;;;18.86;78.26;95316.47;5012376;28;20057;-74
2021/07/13 04:25:52;;;;;;;9.38;4.70;;;;;;;18.86;78.46;95299.94;5015426;28;20515;-76
2021/07/13 04:28:19;;;;;;;6.70;4.00;;;;;;;18.92;78.05;95309.38;5014688;28;20390;-74
2021/07/13 04:30:46;;;;;;;8.02;4.43;;;;;;;18.93;77.65;95321.19;5015469;28;20046;-75
2021/07/13 04:33:12;;;;;;;11.65;4.55;;;;;;;18.94;77.88;95318.03;5014748;28;20048;-74
2021/07/13 04:35:39;;;;;;;10.82;4.40;;;;;;;18.96;77.68;95326.72;5014960;28;20094;-74
2021/07/13 04:38:05;;;;;;;9.90;5.22;;;;;;;18.87;77.74;95340.13;4994812;28;20058;-73
2021/07/13 04:40:33;;;;;;;6.47;4.78;;;;;;;18.76;78.02;95334.63;4995553;28;20046;-74
2021/07/13 04:43:00;;;;;;;6.68;4.22;;;;;;;18.72;78.37;95333.03;4995555;28;20046;-73
2021/07/13 04:45:26;;;;;;;8.50;4.72;;;;;;;18.68;78.60;95321.22;5004710;28;20046;-73
2021/07/13 04:47:53;;;;;;;10.23;4.20;;;;;;;18.61;78.82;95323.97;5015050;28;20054;-73
2021/07/13 04:50:19;;;;;;;6.45;4.75;;;;;;;18.60;79.17;95322.41;5014511;28;20512;-73
2021/07/13 04:52:46;;;;;;;7.68;5.00;;;;;;;18.65;79.46;95316.47;5014812;28;20046;-74
2021/07/13 04:55:17;;;;;;;9.27;4.72;;;;;;;18.71;79.44;95326.75;5014550;28;20050;-74
2021/07/13 04:57:44;;;;;;;12.43;4.20;;;;;;;18.69;78.90;95322.81;5015051;28;20045;-73
2021/07/13 05:00:13;;;;;;;6.53;4.72;;;;;;;18.73;79.08;95326.34;5014183;28;20078;-75
2021/07/13 05:02:40;;;;;;;6.90;4.22;;;;;;;18.77;79.21;95329.88;5014826;28;20038;-73
2021/07/13 05:05:10;;;;;;;7.88;4.50;;;;;;;18.77;78.94;95329.88;5014417;28;20057;-74
2021/07/13 05:07:39;;;;;;;7.30;4.53;;;;;;;18.84;79.48;95324.34;5014369;28;20125;-73
2021/07/13 05:10:07;;;;;;;9.75;4.93;;;;;;;18.89;79.47;95321.19;5014153;28;20046;-72
2021/07/13 05:12:33;;;;;;;5.55;4.55;;;;;;;18.95;79.51;95311.34;5014670;28;20045;-73
2021/07/13 05:15:01;;;;;;;4.95;4.15;;;;;;;19.07;78.85;95312.09;5014615;28;20058;-73
2021/07/13 05:17:27;;;;;;;6.13;4.60;;;;;;;19.13;78.87;95307.75;5014222;28;20045;-74
2021/07/13 05:19:54;;;;;;;8.13;4.25;;;;;;;19.20;79.00;95302.19;5014471;28;20128;-74
2021/07/13 05:22:20;;;;;;;8.52;4.70;;;;;;;19.24;78.93;95301.00;5013885;28;20050;-73
2021/07/13 05:24:46;;;;;;;7.93;4.35;;;;;;;19.28;78.20;95307.31;5014362;28;20128;-73
2021/07/13 05:27:13;;;;;;;4.82;3.88;;;;;;;19.39;77.86;95318.31;5013758;28;20057;-74
2021/07/13 05:29:40;;;;;;;9.75;4.22;;;;;;;19.40;77.20;95317.13;5014214;28;20049;-74
2021/07/13 05:32:08;;;;;;;10.93;3.95;;;;;;;19.48;77.16;95323.41;5013875;28;20050;-72
2021/07/13 05:34:35;;;;;;;8.40;4.03;;;;;;;19.55;75.99;95318.63;5014089;28;20050;-74
2021/07/13 05:37:01;;;;;;;5.30;3.60;;;;;;;19.63;75.98;95310.34;5013394;28;20440;-73
2021/07/13 05:39:28;;;;;;;7.88;4.00;;;;;;;19.72;75.81;95310.69;5013586;28;20041;-74
2021/07/13 05:41:55;;;;;;;6.43;3.80;;;;;;;19.80;76.13;95306.72;5014146;28;20042;-73
2021/07/13 05:44:22;;;;;;;7.10;3.90;;;;;;;19.88;76.54;95312.97;5013315;28;21310;-73
2021/07/13 05:46:49;;;;;;;5.45;4.30;;;;;;;19.90;76.35;95294.81;5013897;28;20441;-73
2021/07/13 05:49:17;;;;;;;7.28;3.90;;;;;;;20.00;75.95;95299.50;5013252;28;20054;-75
2021/07/13 05:51:44;;;;;;;9.73;4.72;;;;;;;20.03;75.48;95287.63;5013622;28;20053;-73
2021/07/13 05:54:11;;;;;;;10.43;4.25;;;;;;;20.12;75.78;95289.16;5013316;28;20504;-75
2021/07/13 05:56:38;;;;;;;8.77;3.83;;;;;;;20.19;75.75;95286.34;5013848;28;20045;-74
2021/07/13 05:59:05;;;;;;;10.50;4.95;;;;;;;20.20;74.97;95279.59;5013166;28;20497;-74
2021/07/13 06:01:32;;;;;;;5.80;4.40;;;;;;;20.18;75.09;95282.78;5013553;28;20046;-74
2021/07/13 06:03:58;;;;;;;11.25;4.25;;;;;;;20.26;75.34;95289.06;5013546;28;20477;-74
2021/07/13 06:06:26;;;;;;;6.47;4.38;;;;;;;20.32;75.60;95281.91;5012677;28;20413;-74
2021/07/13 06:08:53;;;;;;;9.50;4.22;;;;;;;20.30;74.87;95278.75;5013395;28;20050;-74
2021/07/13 06:11:20;;;;;;;6.55;3.95;;;;;;;20.30;75.47;95290.59;5013209;28;20053;-73
2021/07/13 06:13:46;;;;;;;5.60;4.13;;;;;;;20.37;75.03;95287.00;5013329;28;20046;-74
2021/07/13 06:16:12;;;;;;;6.80;4.50;;;;;;;20.39;75.06;95292.91;5012771;28;20101;-74
2021/07/13 06:18:39;;;;;;;4.95;3.92;;;;;;;20.36;73.75;95288.19;5013288;28;20456;-74
2021/07/13 06:21:08;;;;;;;6.85;4.30;;;;;;;20.30;73.86;95289.81;5012741;28;20050;-74
2021/07/13 06:23:36;;;;;;;5.43;4.53;;;;;;;20.25;74.59;95309.59;5013306;28;20046;-73
2021/07/13 06:26:03;;;;;;;7.25;4.60;;;;;;;20.26;75.03;95305.66;5012895;28;20068;-73
2021/07/13 06:28:30;;;;;;;6.90;4.55;;;;;;;20.24;74.75;95308.00;5013240;28;20050;-74
2021/07/13 06:30:56;;;;;;;7.38;4.32;;;;;;;20.28;74.91;95314.31;5013032;28;20061;-74
2021/07/13 06:33:23;;;;;;;7.22;5.10;;;;;;;20.32;74.76;95317.84;5012493;28;20398;-74
2021/07/13 06:35:49;;;;;;;10.50;4.63;;;;;;;20.23;74.94;95317.50;5012486;28;20045;-74
2021/07/13 06:38:16;;;;;;;6.90;3.90;;;;;;;20.27;75.09;95318.28;5012266;28;20053;-73
2021/07/13 06:40:45;;;;;;;7.95;3.97;;;;;;;20.23;74.44;95318.28;5012656;28;20076;-74
2021/07/13 06:43:11;;;;;;;7.75;4.10;;;;;;;20.22;73.99;95322.25;5012358;28;20066;-73
2021/07/13 06:45:37;;;;;;;6.40;4.13;;;;;;;20.22;74.62;95310.41;5012116;28;20045;-74
2021/07/13 06:48:04;;;;;;;8.13;4.38;;;;;;;20.23;75.26;95311.97;5012166;28;20046;-72
2021/07/13 06:50:31;;;;;;;6.07;4.60;;;;;;;20.24;75.59;95308.00;5012714;28;20049;-73
2021/07/13 06:52:57;;;;;;;5.93;4.18;;;;;;;20.26;75.03;95316.72;5012736;28;20053;-74
2021/07/13 06:55:24;;;;;;;5.38;4.20;;;;;;;20.32;75.52;95315.06;5012328;28;20050;-73
2021/07/13 06:57:51;;;;;;;6.78;4.30;;;;;;;20.28;74.72;95320.63;5012687;28;20061;-74
2021/07/13 07:00:19;;;;;;;6.15;3.90;;;;;;;20.18;74.74;95315.16;5012054;28;20061;-74
2021/07/13 07:02:45;;;;;;;6.00;4.43;;;;;;;20.05;74.34;95304.59;5012519;28;20069;-74
2021/07/13 07:05:14;;;;;;;8.13;5.13;;;;;;;20.00;76.06;95307.00;5012017;28;20445;-74
2021/07/13 07:07:45;;;;;;;6.75;4.13;;;;;;;20.03;76.94;95320.78;5012036;28;20038;-74
2021/07/13 07:10:12;;;;;;;7.90;4.20;;;;;;;20.05;75.77;95323.94;5011862;28;20100;-73
2021/07/13 07:12:39;;;;;;;5.85;4.32;;;;;;;20.05;76.07;95329.47;5012209;28;20422;-74
2021/07/13 07:15:08;;;;;;;8.80;4.70;;;;;;;20.07;76.30;95331.81;5011729;28;20050;-73
2021/07/13 07:17:42;;;;;;;8.27;4.43;;;;;;;20.10;74.74;95319.16;5012300;28;20058;-73
2021/07/13 07:20:10;;;;;;;6.72;4.60;;;;;;;20.04;74.69;95321.56;5011716;28;20061;-73
2021/07/13 07:22:37;;;;;;;8.25;4.50;;;;;;;20.05;75.12;95325.94;5012391;28;20042;-74
2021/07/13 07:25:04;;;;;;;9.00;4.13;;;;;;;20.07;75.93;95335.38;5011457;28;20073;-73
2021/07/13 07:27:31;;;;;;;9.15;4.35;;;;;;;20.12;76.09;95334.16;5011978;28;20409;-74
2021/07/13 07:29:57;;;;;;;6.80;4.22;;;;;;;20.17;75.82;95341.25;5011999;28;20053;-73
2021/07/13 07:32:25;;;;;;;7.25;4.03;;;;;;;20.23;76.13;95337.63;5011705;28;20516;-73
2021/07/13 07:34:51;;;;;;;8.07;4.32;;;;;;;20.32;76.13;95337.19;5012054;28;20046;-74
2021/07/13 07:37:18;;;;;;;5.93;4.65;;;;;;;20.36;75.49;95326.91;5011017;28;20553;-74
2021/07/13 07:39:44;;;;;;;6.45;4.30;;;;;;;20.41;75.94;95340.28;5011832;28;20085;-75
2021/07/13 07:42:11;;;;;;;9.43;4.38;;;;;;;20.48;74.84;95334.72;5011402;28;20046;-73
2021/07/13 07:44:37;;;;;;;6.63;4.57;;;;;;;20.53;74.91;95328.75;5011770;28;20046;-74
2021/07/13 07:47:04;;;;;;;6.78;4.22;;;;;;;20.64;73.59;95339.75;5011285;28;20057;-73
2021/07/13 07:49:32;;;;;;;5.28;3.92;;;;;;;20.71;73.97;95341.66;5011616;28;20052;-73
2021/07/13 07:51:58;;;;;;;6.20;4.72;;;;;;;20.78;73.61;95330.53;5011535;28;20402;-74
2021/07/13 07:54:25;;;;;;;7.00;4.30;;;;;;;20.80;73.42;95328.16;5011295;28;20041;-73
2021/07/13 07:56:51;;;;;;;8.90;3.83;;;;;;;20.86;72.79;95323.72;5011615;28;20456;-75
2021/07/13 07:59:20;;;;;;;12.57;4.72;;;;;;;20.73;71.15;95328.22;5010519;28;20069;-73
2021/07/13 08:01:47;;;;;;;6.13;4.20;;;;;;;20.61;72.11;95323.16;5011491;28;20081;-73
2021/07/13 08:04:13;;;;;;;8.43;4.38;;;;;;;20.65;72.96;95323.94;5011202;28;20053;-73
2021/07/13 08:06:41;;;;;;;8.10;4.95;;;;;;;20.67;72.30;95332.59;5011069;28;20513;-74
2021/07/13 08:09:08;;;;;;;7.40;4.70;;;;;;;20.79;72.04;95321.03;5011258;28;20050;-73
2021/07/13 08:11:35;;;;;;;6.72;4.10;;;;;;;20.92;71.79;95326.84;5011476;28;20053;-74
2021/07/13 08:14:04;;;;;;;5.88;4.57;;;;;;;21.15;73.23;95323.47;5011373;28;20409;-74
2021/07/13 08:16:30;;;;;;;7.05;4.25;;;;;;;21.38;71.07;95331.94;5011138;28;20049;-74
2021/07/13 08:18:57;;;;;;;8.43;4.07;;;;;;;21.71;70.67;95335.88;5011640;28;20052;-74
2021/07/13 08:21:23;;;;;;;8.50;4.30;;;;;;;22.05;67.86;95338.63;5010897;28;20061;-73
2021/07/13 08:23:51;;;;;;;6.55;3.95;;;;;;;22.36;66.95;95338.63;5011407;28;20065;-73
2021/07/13 08:26:18;;;;;;;8.55;4.40;;;;;;;22.70;64.58;95343.22;5010882;28;20045;-74
2021/07/13 08:28:44;;;;;;;8.75;4.70;;;;;;;22.65;65.11;95347.25;5011286;28;20042;-75
2021/07/13 08:31:11;;;;;;;9.05;4.65;;;;;;;22.72;65.72;95351.94;5010637;28;20093;-73
2021/07/13 08:33:37;;;;;;;5.35;4.20;;;;;;;22.90;64.77;95356.00;5011306;28;20053;-73
2021/07/13 08:36:04;;;;;;;7.40;4.32;;;;;;;23.12;64.30;95348.06;5010288;28;20516;-73
2021/07/13 08:38:31;;;;;;;7.28;4.38;;;;;;;23.37;63.98;95353.19;5011063;28;20042;-73
2021/07/13 08:41:00;;;;;;;7.35;4.32;;;;;;;23.15;64.10;95355.56;5011107;28;20053;-73
2021/07/13 08:43:27;;;;;;;6.72;4.07;;;;;;;22.89;65.59;95354.44;5010706;28;20547;-73
2021/07/13 08:45:55;;;;;;;7.25;4.18;;;;;;;22.86;67.94;95360.78;5011278;28;20497;-73
2021/07/13 08:48:23;;;;;;;5.68;4.60;;;;;;;22.94;64.95;95369.81;5010749;28;20046;-73
2021/07/13 08:50:53;;;;;;;9.15;4.20;;;;;;;22.74;66.28;95380.03;5011019;28;20046;-74
2021/07/13 08:53:20;;;;;;;6.35;4.25;;;;;;;22.75;66.97;95378.81;5010688;28;20042;-72
2021/07/13 08:55:46;;;;;;;5.95;4.95;;;;;;;23.02;66.94;95376.84;5011018;28;20505;-73
2021/07/13 08:58:15;;;;;;;7.85;5.18;;;;;;;23.18;65.19;95371.41;5010702;28;20413;-73
2021/07/13 09:00:42;;;;;;;7.70;5.20;;;;;;;23.01;64.89;95380.00;5011093;28;20038;-73
2021/07/13 09:03:11;;;;;;;7.53;5.32;;;;;;;22.90;66.19;95388.53;5010469;28;20046;-72
2021/07/13 09:05:43;;;;;;;8.32;6.18;;;;;;;22.74;67.19;95391.13;5010854;28;20069;-74
2021/07/13 09:08:17;;;;;;;9.45;6.40;;;;;;;22.63;66.68;95385.75;4990834;28;20047;-73
2021/07/13 09:11:01;;;;;;;8.40;6.68;;;;;;;22.51;66.27;95381.56;4994548;28;20046;-75
2021/07/13 09:13:31;;;;;;;9.77;8.00;;;;;;;22.41;66.34;95382.50;4994590;28;20042;-72
2021/07/13 09:15:58;;;;;;;12.05;6.95;;;;;;;22.37;66.43;95379.00;5008625;28;20069;-72
2021/07/13 09:18:33;;;;;;;14.60;6.40;;;;;;;22.35;67.55;95400.84;5014142;28;20068;-75
2021/07/13 09:21:12;;;;;;;18.48;7.43;;;;;;;22.29;68.85;95402.47;5014524;28;20045;-74
2021/07/13 09:24:01;;;;;;;10.13;7.30;;;;;;;22.23;68.88;95404.16;5014319;28;20038;-75
2021/07/13 09:26:52;;;;;;;10.80;7.43;;;;;;;22.29;67.99;95403.28;5014114;28;20485;-74
2021/07/13 09:29:46;;;;;;;11.10;7.90;;;;;;;22.23;68.37;95404.16;5013784;28;20524;-73
2021/07/13 09:32:29;;;;;;;;;;;;;;;22.26;67.83;95403.34;4999978;28;20120;-73
2021/07/13 09:34:58;;;;;;;9.40;6.57;;;;;;;22.19;67.54;95400.66;5014235;28;19926;-72
2021/07/13 09:37:27;;;;;;;9.10;5.95;;;;;;;22.23;67.32;95404.16;5013175;28;20133;-73
2021/07/13 09:40:06;;;;;;;10.52;6.47;;;;;;;22.25;69.00;95407.31;5013918;28;20049;-73
2021/07/13 09:42:34;;;;;;;7.20;5.93;;;;;;;22.31;68.05;95400.09;5014018;28;20049;-73
2021/07/13 09:45:22;;;;;;;8.82;5.75;;;;;;;22.57;67.45;95396.53;5013902;28;20049;-72
2021/07/13 09:47:50;;;;;;;9.23;5.82;;;;;;;22.70;65.91;95398.72;5014029;28;20061;-73
2021/07/13 09:50:31;;;;;;;9.55;6.28;;;;;;;22.72;66.01;95399.88;5013454;28;20049;-73
2021/07/13 09:52:58;;;;;;;9.30;6.10;;;;;;;22.78;65.72;95405.75;5013886;28;20046;-73
2021/07/13 09:55:26;;;;;;;7.97;6.13;;;;;;;22.78;66.07;95405.75;5013385;28;20076;-73
2021/07/13 09:57:52;;;;;;;7.55;6.68;;;;;;;22.72;66.17;95407.44;5013756;28;20556;-74
2021/07/13 10:00:21;;;;;;;10.63;6.75;;;;;;;22.77;65.74;95393.09;5013377;28;20050;-73
2021/07/13 10:02:48;;;;;;;8.95;6.72;;;;;;;22.72;66.42;95399.09;5013620;28;20070;-73
2021/07/13 10:05:14;;;;;;;7.80;6.43;;;;;;;22.74;67.06;95405.00;5013076;28;20052;-72
2021/07/13 10:07:43;;;;;;;9.23;6.70;;;;;;;22.82;66.56;95401.72;5012998;28;20053;-74
2021/07/13 10:10:14;;;;;;;7.40;6.55;;;;;;;22.75;65.91;95399.03;5012950;28;20037;-73
2021/07/13 10:12:42;;;;;;;8.13;6.70;;;;;;;22.68;65.32;95390.84;5013406;28;20104;-76
2021/07/13 10:15:10;;;;;;;7.68;6.65;;;;;;;22.71;65.80;95395.56;5012967;28;20054;-73
2021/07/13 10:17:39;;;;;;;10.75;7.00;;;;;;;22.73;65.27;95393.13;5013469;28;20057;-73
2021/07/13 10:20:09;;;;;;;9.43;7.22;;;;;;;22.73;64.84;95397.91;5012467;28;20444;-72
2021/07/13 10:22:40;;;;;;;8.50;7.07;;;;;;;22.63;65.66;95392.09;5012939;28;20072;-75
2021/07/13 10:25:07;;;;;;;10.25;6.93;;;;;;;22.65;67.99;95395.22;5012890;28;20590;-76
2021/07/13 10:27:36;;;;;;;8.85;6.72;;;;;;;22.69;65.83;95405.47;5013200;28;20054;-73
2021/07/13 10:30:07;;;;;;;9.07;6.28;;;;;;;22.70;67.25;95401.50;5012854;28;20056;-71
2021/07/13 10:32:35;;;;;;;8.90;6.20;;;;;;;22.70;65.57;95407.06;5012912;28;20053;-74
2021/07/13 10:35:13;;;;;;;7.95;5.90;;;;;;;22.62;65.49;95421.03;5012741;28;20133;-72
2021/07/13 10:37:41;;;;;;;7.57;5.72;;;;;;;22.58;66.66;95414.75;5012360;28;20046;-73
2021/07/13 10:40:10;;;;;;;7.28;5.63;;;;;;;22.50;65.63;95416.06;5012484;28;20045;-73
2021/07/13 10:42:54;;;;;;;8.07;5.68;;;;;;;22.46;65.91;95417.31;5012958;28;20037;-73
2021/07/13 10:45:24;;;;;;;8.27;5.30;;;;;;;22.35;64.15;95420.25;5012202;28;20054;-75
2021/07/13 10:47:59;;;;;;;7.70;4.90;;;;;;;22.34;64.96;95413.09;5012736;28;20068;-74
2021/07/13 10:50:47;;;;;;;5.57;4.85;;;;;;;22.41;64.95;95418.56;5012289;28;20050;-74
2021/07/13 10:53:25;;;;;;;5.82;3.90;;;;;;;22.30;63.82;95442.91;5011969;28;20104;-73
2021/07/13 10:56:03;;;;;;;7.45;2.80;;;;;;;21.75;65.60;95457.78;5012628;28;20057;-74
2021/07/13 10:58:36;;;;;;;3.40;2.40;;;;;;;21.43;66.91;95452.56;5012580;28;20049;-73
2021/07/13 11:01:06;;;;;;;5.95;1.92;;;;;;;21.09;66.94;95478.16;5012102;28;20046;-72
2021/07/13 11:04:10;;;;;;;4.47;1.60;;;;;;;20.80;66.90;95481.09;5012662;28;20058;-73
2021/07/13 11:06:57;;;;;;;;;;;;;;;20.62;67.89;95493.47;5012509;28;20045;-75
2021/07/13 11:09:35;;;;;;;2.92;1.33;;;;;;;20.29;68.25;95493.59;5012121;28;20369;-76
2021/07/13 11:12:18;;;;;;;2.90;1.30;;;;;;;20.07;68.85;95490.13;5012385;28;20092;-76
2021/07/13 11:15:02;;;;;;;4.13;1.40;;;;;;;19.93;68.86;95506.75;5012197;28;20041;-75
2021/07/13 11:17:31;;;;;;;2.33;1.38;;;;;;;19.88;69.46;95512.69;5012173;28;20084;-75
2021/07/13 11:20:04;;;;;;;5.63;1.80;;;;;;;19.65;69.22;95526.94;5012272;28;20124;-75
2021/07/13 11:22:32;;;;;;;5.80;1.33;;;;;;;19.35;69.50;95529.31;5011938;28;20042;-74
2021/07/13 11:24:58;;;;;;;3.97;1.40;;;;;;;19.21;69.33;95541.13;5012058;28;20050;-73
2021/07/13 11:27:24;;;;;;;6.00;1.70;;;;;;;19.10;70.48;95535.59;5011720;28;20037;-75
2021/07/13 11:29:54;;;;;;;5.10;1.13;;;;;;;19.05;70.77;95547.03;5012058;28;20497;-75
2021/07/13 11:32:21;;;;;;;3.63;1.50;;;;;;;18.99;70.07;95543.84;5011220;28;20050;-74
2021/07/13 11:34:47;;;;;;;8.23;1.30;;;;;;;18.97;69.48;95549.00;5012008;28;20046;-72
2021/07/13 11:37:15;;;;;;;3.58;1.45;;;;;;;18.92;69.39;95540.31;5010940;28;20050;-74
2021/07/13 11:39:43;;;;;;;4.75;1.42;;;;;;;18.86;70.69;95548.19;5011615;28;20042;-73
2021/07/13 11:42:11;;;;;;;4.68;1.30;;;;;;;18.90;68.63;95565.53;5011437;28;20054;-73